Time;durP1;ratioP1;P1;durP2;ratioP2;P2;SDS_P1;SDS_P2;PMS_P1;PMS_P2;Temp;Humidity;BMP_temperature;BMP_pressure;BME280_temperature;BME280_humidity;BME280_pressure;Samples;Min_cycle;Max_cycle;Signal;HPM_P1;HPM_P2
2021/05/01 00:00:43;;;;;;;2.40;2.20;;;20.60;99.90;;;;;;5165330;27;20459;-41
2021/05/01 00:03:13;;;;;;;2.83;2.63;;;20.70;99.90;;;;;;5165130;27;20483;-42
2021/05/01 00:05:43;;;;;;;2.43;2.23;;;20.90;99.90;;;;;;5165025;27;20574;-41
2021/05/01 00:08:13;;;;;;;2.27;2.17;;;20.80;99.90;;;;;;5163611;27;20471;-40
2021/05/01 00:10:43;;;;;;;6.40;2.70;;;20.80;99.90;;;;;;5164836;27;20447;-40
2021/05/01 00:13:13;;;;;;;2.67;2.40;;;20.60;99.90;;;;;;5155338;27;20439;-40
2021/05/01 00:15:44;;;;;;;2.40;2.07;;;20.50;99.90;;;;;;5162371;27;20452;-39
2021/05/01 00:18:14;;;;;;;1.90;1.80;;;20.30;99.90;;;;;;5164587;27;20860;-41
2021/05/01 00:20:45;;;;;;;2.63;2.43;;;20.10;99.90;;;;;;5165164;27;20622;-41
2021/05/01 00:23:15;;;;;;;2.93;2.40;;;19.90;99.90;;;;;;5164696;27;20505;-40
2021/05/01 00:25:45;;;;;;;2.60;2.40;;;19.90;99.90;;;;;;5165454;27;20566;-41
2021/05/01 00:28:15;;;;;;;3.50;2.87;;;20.00;99.90;;;;;;5148307;27;20448;-40
2021/05/01 00:30:46;;;;;;;3.53;2.43;;;20.00;99.90;;;;;;5164909;27;20512;-40
2021/05/01 00:33:16;;;;;;;3.00;2.80;;;20.10;99.90;;;;;;5157704;27;20456;-41
2021/05/01 00:35:46;;;;;;;3.10;2.87;;;20.00;99.90;;;;;;5164316;27;20449;-42
2021/05/01 00:38:16;;;;;;;2.70;2.50;;;20.20;99.90;;;;;;5162330;27;20941;-40
2021/05/01 00:40:46;;;;;;;2.50;2.30;;;20.40;99.90;;;;;;5164973;27;20432;-41
2021/05/01 00:43:16;;;;;;;2.90;2.70;;;20.30;99.90;;;;;;5162867;27;20448;-41
2021/05/01 00:45:47;;;;;;;2.23;2.13;;;20.30;99.90;;;;;;5164116;27;20450;-39
2021/05/01 00:48:18;;;;;;;3.97;2.60;;;20.30;99.90;;;;;;5163643;27;20473;-39
2021/05/01 00:50:49;;;;;;;2.73;2.53;;;20.40;99.90;;;;;;5164391;27;20451;-40
2021/05/01 00:53:19;;;;;;;2.83;2.60;;;20.30;99.90;;;;;;5164554;27;20414;-41
2021/05/01 00:55:49;;;;;;;3.70;2.47;;;20.20;99.90;;;;;;5166051;27;20438;-41
2021/05/01 00:58:20;;;;;;;2.93;2.33;;;20.20;99.90;;;;;;5163118;27;20414;-41
2021/05/01 01:01:14;;;;;;;2.63;2.43;;;20.10;99.90;;;;;;5165063;27;20837;-43
2021/05/01 01:03:44;;;;;;;2.87;2.60;;;19.90;99.90;;;;;;5164511;27;20469;-42
2021/05/01 01:06:15;;;;;;;2.73;2.37;;;19.70;99.90;;;;;;5162456;27;20448;-41
2021/05/01 01:08:46;;;;;;;2.73;2.53;;;19.60;99.90;;;;;;5155791;27;20594;-41
2021/05/01 01:11:16;;;;;;;2.50;2.30;;;19.60;99.90;;;;;;5165540;27;20436;-41
2021/05/01 01:14:06;;;;;;;3.40;2.90;;;19.60;99.90;;;;;;5158118;27;20516;-40
2021/05/01 01:16:38;;;;;;;3.30;2.57;;;19.50;99.90;;;;;;5155887;27;20452;-40
2021/05/01 01:19:08;;;;;;;3.17;2.90;;;19.40;99.90;;;;;;5163635;27;20440;-40
2021/05/01 01:21:46;;;;;;;3.00;2.70;;;19.30;99.90;;;;;;5159841;27;20444;-41
2021/05/01 01:24:18;;;;;;;3.07;2.50;;;19.50;99.90;;;;;;5162362;27;20446;-41
2021/05/01 01:26:49;;;;;;;3.30;3.00;;;19.30;99.90;;;;;;5162794;27;20446;-41
2021/05/01 01:29:19;;;;;;;3.27;3.07;;;19.20;99.90;;;;;;5164453;27;20492;-41
2021/05/01 01:31:49;;;;;;;3.87;3.57;;;19.30;99.90;;;;;;5157333;27;20931;-42
2021/05/01 01:34:20;;;;;;;3.37;3.07;;;19.20;99.90;;;;;;5164657;27;20519;-42
2021/05/01 01:36:50;;;;;;;3.00;2.57;;;19.20;99.90;;;;;;5164345;27;20459;-41
2021/05/01 01:39:22;;;;;;;3.67;3.33;;;19.20;99.90;;;;;;5164016;27;20448;-42
2021/05/01 01:41:52;;;;;;;4.77;3.00;;;19.20;99.90;;;;;;5155842;27;20454;-42
2021/05/01 01:44:22;;;;;;;3.90;3.60;;;19.30;99.90;;;;;;5153511;27;20440;-41
2021/05/01 01:46:52;;;;;;;4.57;4.17;;;19.30;99.90;;;;;;5164177;27;20471;-42
2021/05/01 01:49:22;;;;;;;4.57;4.33;;;19.30;99.90;;;;;;5163891;27;20476;-41
2021/05/01 01:51:52;;;;;;;3.57;3.30;;;19.20;99.90;;;;;;5163990;27;20470;-41
2021/05/01 01:54:24;;;;;;;5.10;3.40;;;19.20;99.90;;;;;;5166037;27;20503;-41
2021/05/01 01:56:54;;;;;;;4.13;3.80;;;19.20;99.90;;;;;;5167659;27;20507;-41
2021/05/01 01:59:24;;;;;;;4.07;3.77;;;19.20;99.90;;;;;;5167493;27;20574;-41
2021/05/01 02:01:54;;;;;;;4.30;4.00;;;19.00;99.90;;;;;;5168042;27;20455;-41
2021/05/01 02:04:24;;;;;;;4.63;4.23;;;19.10;99.90;;;;;;5167736;27;20455;-42
2021/05/01 02:06:54;;;;;;;4.27;3.87;;;19.10;99.90;;;;;;5167452;27;20454;-42
2021/05/01 02:09:25;;;;;;;4.20;3.90;;;19.10;99.90;;;;;;5167081;27;21034;-42
2021/05/01 02:11:56;;;;;;;4.40;4.00;;;19.00;99.90;;;;;;5167338;27;20436;-42
2021/05/01 02:14:26;;;;;;;4.20;3.90;;;19.00;99.90;;;;;;5167581;27;20467;-42
2021/05/01 02:16:56;;;;;;;5.67;3.80;;;18.90;99.90;;;;;;5160938;27;20444;-42
2021/05/01 02:19:27;;;;;;;3.83;3.40;;;18.90;99.90;;;;;;5166222;27;20444;-43
2021/05/01 02:21:57;;;;;;;3.60;3.10;;;18.80;99.90;;;;;;5167405;27;20448;-42
2021/05/01 02:24:28;;;;;;;4.37;3.97;;;18.60;99.90;;;;;;5168403;27;20814;-42
2021/05/01 02:26:58;;;;;;;5.27;3.40;;;18.60;99.90;;;;;;5166615;27;20446;-42
2021/05/01 02:29:28;;;;;;;4.23;2.87;;;18.60;99.90;;;;;;5167213;27;20479;-42
2021/05/01 02:31:59;;;;;;;4.57;4.17;;;18.50;99.90;;;;;;5167354;27;20440;-41
2021/05/01 02:34:29;;;;;;;4.53;4.20;;;18.50;99.90;;;;;;5167218;27;20468;-41
2021/05/01 02:36:59;;;;;;;3.73;3.23;;;18.50;99.90;;;;;;5166548;27;20894;-41
2021/05/01 02:39:30;;;;;;;4.77;4.37;;;18.40;99.90;;;;;;5167759;27;20432;-41
2021/05/01 02:42:00;;;;;;;3.73;3.53;;;18.40;99.90;;;;;;5165626;27;20477;-42
2021/05/01 02:44:32;;;;;;;3.23;3.03;;;18.40;99.90;;;;;;5167365;27;20448;-42
2021/05/01 02:47:02;;;;;;;3.20;2.90;;;18.40;99.90;;;;;;5150927;27;20470;-42
2021/05/01 02:49:33;;;;;;;3.57;2.90;;;18.30;99.90;;;;;;5166037;27;20555;-41
2021/05/01 02:52:03;;;;;;;4.50;3.30;;;18.30;99.90;;;;;;5167209;27;20465;-41
2021/05/01 02:54:34;;;;;;;3.33;3.10;;;18.20;99.90;;;;;;5166881;27;20484;-41
2021/05/01 02:57:05;;;;;;;3.50;3.20;;;18.10;99.90;;;;;;5161278;27;20811;-42
2021/05/01 02:59:35;;;;;;;3.13;2.83;;;18.10;99.90;;;;;;5167078;27;20444;-42
2021/05/01 03:02:05;;;;;;;3.20;3.00;;;18.00;99.90;;;;;;5166120;27;20497;-42
2021/05/01 03:04:35;;;;;;;3.20;3.00;;;18.00;99.90;;;;;;5166313;27;20443;-42
2021/05/01 03:07:05;;;;;;;3.67;3.37;;;18.00;99.90;;;;;;5166551;27;20429;-41
2021/05/01 03:09:37;;;;;;;5.23;3.20;;;18.10;99.90;;;;;;5166770;27;20476;-41
2021/05/01 03:12:08;;;;;;;3.77;3.37;;;18.00;99.90;;;;;;5165434;27;20451;-42
2021/05/01 03:14:38;;;;;;;3.53;3.33;;;18.00;99.90;;;;;;5155823;27;20447;-43
2021/05/01 03:17:08;;;;;;;3.57;3.37;;;18.00;99.90;;;;;;5166386;27;20448;-42
2021/05/01 03:19:39;;;;;;;3.23;3.03;;;18.00;99.90;;;;;;5166490;27;20444;-42
2021/05/01 03:22:09;;;;;;;3.50;3.23;;;17.90;99.90;;;;;;5166790;27;20821;-41
2021/05/01 03:24:41;;;;;;;3.40;3.17;;;17.80;99.90;;;;;;5166415;27;20493;-42
2021/05/01 03:27:11;;;;;;;4.17;3.97;;;18.00;99.90;;;;;;5149308;27;20440;-42
2021/05/01 03:29:41;;;;;;;3.77;3.47;;;17.80;99.90;;;;;;5166197;27;20693;-41
2021/05/01 03:32:11;;;;;;;3.97;3.70;;;17.80;99.90;;;;;;5166170;27;20444;-41
2021/05/01 03:34:41;;;;;;;3.43;3.13;;;17.70;99.90;;;;;;5166504;27;20486;-41
2021/05/01 03:37:12;;;;;;;4.10;3.70;;;17.60;99.90;;;;;;5167095;27;20461;-41
2021/05/01 03:39:43;;;;;;;4.40;4.10;;;17.50;99.90;;;;;;5165521;27;20496;-41
2021/05/01 03:42:13;;;;;;;4.00;3.80;;;17.60;99.90;;;;;;5163712;27;20440;-41
2021/05/01 03:47:32;;;;;;;4.80;4.43;;;17.30;99.90;;;;;;5165836;27;20931;-41
2021/05/01 03:50:02;;;;;;;4.40;4.00;;;17.20;99.90;;;;;;5166224;27;20829;-42
2021/05/01 03:52:33;;;;;;;4.97;4.67;;;17.20;99.90;;;;;;5166570;27;20440;-41
2021/05/01 03:55:05;;;;;;;4.93;4.63;;;17.10;99.90;;;;;;5166068;27;20512;-42
2021/05/01 03:57:52;;;;;;;4.70;4.40;;;17.10;99.90;;;;;;5156176;27;20448;-42
2021/05/01 04:00:23;;;;;;;4.50;4.20;;;17.00;99.90;;;;;;5166289;27;20444;-42
2021/05/01 04:02:53;;;;;;;4.87;4.40;;;16.90;99.90;;;;;;5163218;27;20451;-42
2021/05/01 04:05:24;;;;;;;4.40;4.00;;;16.80;99.90;;;;;;5165156;27;20452;-42
2021/05/01 04:07:54;;;;;;;4.50;4.10;;;16.70;99.90;;;;;;5166232;27;20440;-42
2021/05/01 04:10:25;;;;;;;3.30;3.00;;;16.60;99.90;;;;;;5166241;27;20482;-42
2021/05/01 04:12:55;;;;;;;3.60;3.30;;;16.50;99.90;;;;;;5164261;27;20508;-42
2021/05/01 04:15:25;;;;;;;4.27;3.97;;;16.40;99.90;;;;;;5159397;27;20448;-42
2021/05/01 04:17:55;;;;;;;3.83;3.53;;;16.30;99.90;;;;;;5164246;27;20489;-42
2021/05/01 04:20:25;;;;;;;3.43;3.23;;;16.20;99.90;;;;;;5165828;27;20483;-42
2021/05/01 04:22:55;;;;;;;3.30;3.10;;;16.20;99.90;;;;;;5165185;27;20505;-42
2021/05/01 04:25:26;;;;;;;3.40;3.10;;;16.20;99.90;;;;;;5165100;27;20551;-41
2021/05/01 04:27:56;;;;;;;3.90;3.60;;;16.10;99.90;;;;;;5164690;27;20488;-42
2021/05/01 04:30:26;;;;;;;3.00;2.80;;;16.10;99.90;;;;;;5165872;27;20528;-42
2021/05/01 04:32:56;;;;;;;2.77;2.57;;;16.00;99.90;;;;;;5165393;27;20951;-43
2021/05/01 04:35:26;;;;;;;2.53;2.33;;;16.10;99.90;;;;;;5165801;27;20451;-42
2021/05/01 04:37:56;;;;;;;3.07;2.87;;;16.10;99.90;;;;;;5154015;27;20448;-42
2021/05/01 04:40:28;;;;;;;2.50;2.30;;;16.10;99.90;;;;;;5166026;27;20444;-42
2021/05/01 04:43:01;;;;;;;2.40;2.20;;;16.10;99.90;;;;;;5164066;27;20455;-42
2021/05/01 04:45:50;;;;;;;2.40;2.20;;;16.00;99.90;;;;;;5164855;27;20480;-41
2021/05/01 04:48:20;;;;;;;2.90;2.30;;;16.00;99.90;;;;;;5151510;27;20443;-42
2021/05/01 04:50:52;;;;;;;2.47;2.27;;;16.00;99.90;;;;;;5165310;27;20999;-40
2021/05/01 04:53:22;;;;;;;2.50;2.20;;;15.80;99.90;;;;;;5164329;27;20439;-42
2021/05/01 04:55:54;;;;;;;1.90;1.80;;;15.90;99.90;;;;;;5164384;27;20460;-41
2021/05/01 04:58:26;;;;;;;2.40;2.30;;;15.80;99.90;;;;;;5163946;27;20444;-42
2021/05/01 05:00:56;;;;;;;2.40;2.30;;;15.90;99.90;;;;;;5165602;27;20480;-42
2021/05/01 05:03:26;;;;;;;2.80;2.60;;;15.90;99.90;;;;;;5164893;27;20448;-42
2021/05/01 05:05:56;;;;;;;2.57;2.43;;;15.90;99.90;;;;;;5164609;27;20439;-42
2021/05/01 05:08:26;;;;;;;3.40;3.10;;;15.80;99.90;;;;;;5153293;27;20448;-42
2021/05/01 05:10:57;;;;;;;4.00;2.10;;;15.80;99.90;;;;;;5164713;27;20547;-42
2021/05/01 05:13:27;;;;;;;1.90;1.70;;;15.80;99.90;;;;;;5163169;27;20448;-42
2021/05/01 05:15:57;;;;;;;1.90;1.50;;;15.60;99.90;;;;;;5164636;27;20535;-42
2021/05/01 05:18:27;;;;;;;1.63;1.53;;;15.50;99.90;;;;;;5164502;27;20480;-42
2021/05/01 05:20:59;;;;;;;2.03;1.80;;;15.50;99.90;;;;;;5165399;27;20444;-42
2021/05/01 05:23:29;;;;;;;1.43;1.33;;;15.40;99.90;;;;;;5162749;27;20447;-42
2021/05/01 05:26:00;;;;;;;1.77;1.30;;;15.30;99.90;;;;;;5164182;27;20444;-42
2021/05/01 05:28:30;;;;;;;1.20;1.20;;;15.20;99.90;;;;;;5165591;27;20863;-42
2021/05/01 05:31:00;;;;;;;1.70;1.60;;;15.10;99.90;;;;;;5168753;27;20480;-42
2021/05/01 05:33:31;;;;;;;1.50;1.23;;;15.20;99.90;;;;;;5168477;27;20511;-42
2021/05/01 05:36:01;;;;;;;1.77;1.67;;;15.10;99.90;;;;;;5168720;27;20535;-42
2021/05/01 05:38:31;;;;;;;3.87;1.83;;;15.10;99.90;;;;;;5166178;27;20466;-41
2021/05/01 05:41:02;;;;;;;1.70;1.60;;;15.10;99.90;;;;;;5167446;27;20505;-41
2021/05/01 05:43:33;;;;;;;2.07;1.60;;;15.00;99.90;;;;;;5166611;27;21041;-41
2021/05/01 05:46:13;;;;;;;1.70;1.60;;;15.00;99.90;;;;;;5167930;27;20476;-42
2021/05/01 05:48:43;;;;;;;1.43;1.33;;;14.90;99.90;;;;;;5168342;27;20497;-41
2021/05/01 05:51:13;;;;;;;1.40;1.30;;;14.90;99.90;;;;;;5168120;27;20470;-42
2021/05/01 05:53:43;;;;;;;1.57;1.47;;;14.90;99.90;;;;;;5167925;27;20462;-41
2021/05/01 05:56:14;;;;;;;1.17;1.17;;;14.90;99.90;;;;;;5168649;27;20448;-41
2021/05/01 05:58:44;;;;;;;1.60;1.50;;;14.90;99.90;;;;;;5167933;27;20452;-41
2021/05/01 06:01:14;;;;;;;1.40;1.30;;;15.00;99.90;;;;;;5168615;27;20515;-41
2021/05/01 06:03:49;;;;;;;1.67;1.57;;;14.90;99.90;;;;;;5167928;27;20504;-42
2021/05/01 06:06:25;;;;;;;1.63;1.53;;;14.90;99.90;;;;;;5166840;27;20443;-41
2021/05/01 06:08:56;;;;;;;1.87;1.70;;;14.90;99.90;;;;;;5167900;27;20450;-42
2021/05/01 06:11:27;;;;;;;3.47;1.93;;;14.90;99.90;;;;;;5166884;27;20444;-41
2021/05/01 06:14:04;;;;;;;3.40;2.43;;;14.90;99.90;;;;;;5164417;27;20453;-41
2021/05/01 06:16:36;;;;;;;2.03;1.67;;;14.90;99.90;;;;;;5166197;27;20448;-42
2021/05/01 06:19:10;;;;;;;1.70;1.60;;;14.90;99.90;;;;;;5167884;27;20511;-43
2021/05/01 06:21:41;;;;;;;1.97;1.87;;;14.80;99.90;;;;;;5167438;27;20443;-41
2021/05/01 06:24:13;;;;;;;2.60;2.13;;;14.80;99.90;;;;;;5166860;27;20440;-41
2021/05/01 06:26:45;;;;;;;1.50;1.40;;;14.80;99.90;;;;;;5166382;27;20466;-41
2021/05/01 06:29:15;;;;;;;2.90;1.80;;;14.70;99.90;;;;;;5167279;27;20578;-41
2021/05/01 06:31:45;;;;;;;1.90;1.33;;;14.60;99.90;;;;;;5167204;27;20448;-41
2021/05/01 06:34:15;;;;;;;1.57;1.30;;;14.60;99.90;;;;;;5167464;27;20444;-41
2021/05/01 06:36:46;;;;;;;2.30;1.40;;;14.50;99.90;;;;;;5166246;27;20444;-41
2021/05/01 06:39:17;;;;;;;3.33;1.70;;;14.50;99.90;;;;;;5166717;27;20463;-41
2021/05/01 06:41:55;;;;;;;1.40;1.30;;;14.50;99.90;;;;;;5166083;27;20455;-41
2021/05/01 06:44:42;;;;;;;2.40;1.37;;;14.50;99.90;;;;;;5160943;27;20515;-41
2021/05/01 06:47:16;;;;;;;1.80;1.23;;;14.50;99.90;;;;;;5158430;27;20444;-41
2021/05/01 06:49:52;;;;;;;3.10;1.47;;;14.50;99.90;;;;;;5166523;27;20468;-41
2021/05/01 06:52:23;;;;;;;1.53;1.40;;;14.50;99.90;;;;;;5167140;27;20455;-41
2021/05/01 06:54:54;;;;;;;1.63;1.53;;;14.50;99.90;;;;;;5166547;27;20444;-41
2021/05/01 06:57:26;;;;;;;1.50;1.40;;;14.60;99.90;;;;;;5165720;27;20448;-41
2021/05/01 06:59:58;;;;;;;1.20;1.10;;;14.60;99.90;;;;;;5166975;27;20473;-41
2021/05/01 07:02:32;;;;;;;1.30;1.20;;;14.60;99.90;;;;;;5166468;27;20444;-41
2021/05/01 07:05:02;;;;;;;1.40;1.30;;;14.60;99.90;;;;;;5166729;27;20440;-41
2021/05/01 07:07:32;;;;;;;1.30;1.30;;;14.60;99.90;;;;;;5165920;27;20853;-41
2021/05/01 07:10:04;;;;;;;1.03;1.03;;;14.50;99.90;;;;;;5166576;27;20594;-41
2021/05/01 07:12:36;;;;;;;1.10;1.07;;;14.50;99.90;;;;;;5165825;27;20508;-42
2021/05/01 07:15:08;;;;;;;1.60;1.50;;;14.50;99.90;;;;;;5166283;27;20512;-41
2021/05/01 07:17:39;;;;;;;1.27;1.17;;;14.50;99.90;;;;;;5166088;27;20496;-42
2021/05/01 07:20:11;;;;;;;1.80;1.70;;;14.50;99.90;;;;;;5166066;27;20443;-41
2021/05/01 07:22:42;;;;;;;1.80;1.70;;;14.50;99.90;;;;;;5165680;27;20493;-41
2021/05/01 07:25:14;;;;;;;1.27;1.17;;;14.50;99.90;;;;;;5165613;27;20953;-42
2021/05/01 07:27:54;;;;;;;1.70;1.47;;;14.40;99.90;;;;;;5164956;27;20496;-42
2021/05/01 07:30:27;;;;;;;1.77;1.60;;;14.40;99.90;;;;;;5166275;27;20480;-41
2021/05/01 07:33:02;;;;;;;1.47;1.37;;;14.50;99.90;;;;;;5165459;27;20451;-41
2021/05/01 07:35:35;;;;;;;1.80;1.70;;;14.50;99.90;;;;;;5165677;27;20447;-42
2021/05/01 07:38:11;;;;;;;1.83;1.73;;;14.50;99.90;;;;;;5165472;27;20452;-42
2021/05/01 07:40:42;;;;;;;2.30;1.83;;;14.50;99.90;;;;;;5166726;27;20814;-41
2021/05/01 07:43:19;;;;;;;1.43;1.33;;;14.50;99.90;;;;;;5165004;27;20538;-42
2021/05/01 07:45:53;;;;;;;1.80;1.70;;;14.40;99.90;;;;;;5165151;27;20463;-41
2021/05/01 07:48:27;;;;;;;1.63;1.53;;;14.40;99.90;;;;;;5165311;27;20499;-41
2021/05/01 07:50:57;;;;;;;1.80;1.60;;;14.40;99.90;;;;;;5165313;27;20881;-39
2021/05/01 07:53:28;;;;;;;1.80;1.50;;;14.30;99.90;;;;;;5158177;27;20436;-42
2021/05/01 07:56:00;;;;;;;2.00;1.80;;;14.30;99.90;;;;;;5165565;27;20440;-41
2021/05/01 07:58:31;;;;;;;1.57;1.47;;;14.30;99.90;;;;;;5164733;27;20466;-40
2021/05/01 08:01:01;;;;;;;1.80;1.70;;;14.20;99.90;;;;;;5165278;27;20444;-41
2021/05/01 08:03:35;;;;;;;1.60;1.50;;;14.30;99.90;;;;;;5164633;27;20507;-41
2021/05/01 08:06:05;;;;;;;1.83;1.73;;;14.20;99.90;;;;;;5164738;27;20461;-41
2021/05/01 08:08:35;;;;;;;2.17;1.87;;;14.20;99.90;;;;;;5164699;27;20488;-41
2021/05/01 08:11:05;;;;;;;1.50;1.40;;;14.20;99.90;;;;;;5165416;27;20479;-42
2021/05/01 08:13:36;;;;;;;1.60;1.50;;;14.10;99.90;;;;;;5164213;27;20448;-41
2021/05/01 08:16:07;;;;;;;1.80;1.70;;;14.10;99.90;;;;;;5160581;27;20459;-43
2021/05/01 08:18:37;;;;;;;1.50;1.40;;;14.10;99.90;;;;;;5164637;27;20451;-42
2021/05/01 08:21:07;;;;;;;2.00;1.90;;;14.00;99.90;;;;;;5165002;27;20444;-42
2021/05/01 08:23:37;;;;;;;1.50;1.40;;;14.00;99.90;;;;;;5164475;27;20443;-41
2021/05/01 08:26:08;;;;;;;1.60;1.50;;;14.00;99.90;;;;;;5164052;27;20440;-43
2021/05/01 08:28:39;;;;;;;1.77;1.67;;;13.90;99.90;;;;;;5162887;27;20448;-41
2021/05/01 08:31:09;;;;;;;2.30;2.10;;;13.80;99.90;;;;;;5164197;27;20562;-42
2021/05/01 08:33:39;;;;;;;1.90;1.73;;;13.70;99.90;;;;;;5164836;27;20458;-41
2021/05/01 08:36:10;;;;;;;1.60;1.50;;;13.60;99.90;;;;;;5163922;27;20527;-41
2021/05/01 08:38:40;;;;;;;1.40;1.40;;;13.60;99.90;;;;;;5164675;27;20444;-41
2021/05/01 08:41:10;;;;;;;1.43;1.33;;;13.50;99.90;;;;;;5165020;27;20448;-41
2021/05/01 08:43:41;;;;;;;1.67;1.57;;;13.50;99.90;;;;;;5163466;27;20451;-41
2021/05/01 08:46:16;;;;;;;1.70;1.60;;;13.50;99.90;;;;;;5163761;27;20520;-41
2021/05/01 08:48:47;;;;;;;1.70;1.60;;;13.40;99.90;;;;;;5164783;27;20443;-41
2021/05/01 08:51:17;;;;;;;1.70;1.60;;;13.40;99.90;;;;;;5164599;27;20590;-41
2021/05/01 08:53:47;;;;;;;1.87;1.77;;;13.40;99.90;;;;;;5164872;27;20436;-41
2021/05/01 08:56:22;;;;;;;1.50;1.40;;;13.40;99.90;;;;;;5163514;27;20472;-41
2021/05/01 08:58:57;;;;;;;2.10;2.00;;;13.40;99.90;;;;;;5164735;27;20447;-40
2021/05/01 09:01:28;;;;;;;2.07;1.90;;;13.30;99.90;;;;;;5163186;27;20447;-41
2021/05/01 09:03:59;;;;;;;2.00;1.80;;;13.30;99.90;;;;;;5171066;27;20435;-41
2021/05/01 09:06:30;;;;;;;2.07;1.97;;;13.40;99.90;;;;;;5170938;27;20443;-41
2021/05/01 09:09:01;;;;;;;2.43;1.90;;;13.40;99.90;;;;;;5171900;27;20861;-41
2021/05/01 09:11:39;;;;;;;1.70;1.60;;;13.30;99.90;;;;;;5170366;27;20543;-41
2021/05/01 09:14:21;;;;;;;2.13;1.92;;;13.30;99.90;;;;;;5158235;27;20500;-42
2021/05/01 09:16:59;;;;;;;2.33;2.13;;;13.20;99.90;;;;;;5163037;27;20518;-42
2021/05/01 09:19:34;;;;;;;1.83;1.73;;;13.20;99.90;;;;;;5171512;27;20812;-42
2021/05/01 09:22:06;;;;;;;2.47;2.13;;;13.10;99.90;;;;;;5171286;27;20435;-41
2021/05/01 09:24:37;;;;;;;1.67;1.57;;;13.10;99.90;;;;;;5170050;27;20444;-41
2021/05/01 09:27:08;;;;;;;2.07;1.97;;;13.10;99.90;;;;;;5169458;27;20456;-41
2021/05/01 09:29:40;;;;;;;2.13;1.80;;;13.10;99.90;;;;;;5171271;27;20451;-42
2021/05/01 09:32:22;;;;;;;2.23;2.13;;;13.00;99.90;;;;;;5171396;27;20484;-42
2021/05/01 09:34:54;;;;;;;1.70;1.60;;;13.00;99.90;;;;;;5171271;27;20554;-42
2021/05/01 09:37:27;;;;;;;2.37;2.17;;;12.90;99.90;;;;;;5169275;27;20510;-42
2021/05/01 09:39:59;;;;;;;2.28;2.17;;;12.80;99.90;;;;;;5171559;27;20447;-40
2021/05/01 09:42:32;;;;;;;2.23;2.13;;;12.80;99.90;;;;;;5170167;27;20194;-41
2021/05/01 09:45:15;;;;;;;2.13;1.90;;;12.80;99.90;;;;;;5170725;27;20447;-41
2021/05/01 09:47:50;;;;;;;1.90;1.80;;;12.60;99.90;;;;;;5170686;27;20468;-41
2021/05/01 09:50:23;;;;;;;2.50;2.30;;;12.60;99.90;;;;;;5171000;27;20498;-41
2021/05/01 09:53:01;;;;;;;3.95;2.65;;;12.50;99.90;;;;;;5170189;27;20891;-41
2021/05/01 09:55:48;;;;;;;2.77;2.30;;;12.40;99.90;;;;;;5170801;27;20216;-41
2021/05/01 09:58:24;;;;;;;2.03;1.92;;;12.40;99.90;;;;;;5158974;27;20442;-41
2021/05/01 10:01:12;;;;;;;2.60;2.40;;;12.40;99.90;;;;;;5171127;27;20235;-41
2021/05/01 10:03:42;;;;;;;2.25;2.05;;;12.30;99.90;;;;;;5170744;27;20206;-42
2021/05/01 10:06:15;;;;;;;2.15;2.05;;;12.30;99.90;;;;;;5170417;27;20603;-42
2021/05/01 10:08:54;;;;;;;2.10;2.00;;;12.30;99.90;;;;;;5169548;27;20202;-42
2021/05/01 10:11:29;;;;;;;2.00;1.90;;;12.20;99.90;;;;;;5169665;27;20222;-41
2021/05/01 10:13:59;;;;;;;1.50;1.40;;;12.20;99.90;;;;;;5168995;27;20451;-42
2021/05/01 10:16:32;;;;;;;2.13;1.77;;;12.20;99.90;;;;;;5167106;27;20215;-41
2021/05/01 10:19:07;;;;;;;1.90;1.80;;;12.00;99.90;;;;;;5167054;27;20439;-41
2021/05/01 10:21:39;;;;;;;2.17;1.98;;;12.00;99.90;;;;;;5167123;27;20267;-42
2021/05/01 10:24:10;;;;;;;1.65;1.55;;;11.80;99.90;;;;;;5167055;27;20194;-42
2021/05/01 10:26:48;;;;;;;1.77;1.67;;;11.90;99.90;;;;;;5165427;27;20199;-41
2021/05/01 10:29:31;;;;;;;2.20;2.10;;;11.70;99.90;;;;;;5167443;27;20226;-42
2021/05/01 10:32:14;;;;;;;2.30;2.00;;;11.70;99.90;;;;;;5167392;27;20195;-41
2021/05/01 10:34:46;;;;;;;2.35;2.15;;;11.70;99.90;;;;;;5167873;27;20194;-42
2021/05/01 10:37:18;;;;;;;2.40;2.25;;;11.60;99.90;;;;;;5165541;27;20602;-42
2021/05/01 10:39:56;;;;;;;2.40;2.30;;;11.50;99.90;;;;;;5149819;27;20247;-42
2021/05/01 10:42:26;;;;;;;1.88;1.77;;;11.50;99.90;;;;;;5165723;27;20223;-41
2021/05/01 10:44:58;;;;;;;2.50;2.30;;;11.40;99.90;;;;;;5166406;27;20206;-42
2021/05/01 10:47:30;;;;;;;1.98;1.88;;;11.40;99.90;;;;;;5166311;27;20187;-41
2021/05/01 10:50:22;;;;;;;2.10;1.98;;;11.30;99.90;;;;;;5154570;27;20243;-41
2021/05/01 10:52:52;;;;;;;2.40;2.20;;;11.30;99.90;;;;;;5166699;27;20194;-40
2021/05/01 10:55:24;;;;;;;2.03;1.92;;;11.20;99.90;;;;;;5166249;27;20209;-40
2021/05/01 10:58:01;;;;;;;2.20;2.10;;;11.20;99.90;;;;;;5158874;27;20334;-40
2021/05/01 11:00:43;;;;;;;2.17;2.05;;;11.20;99.90;;;;;;5166676;27;20202;-41
2021/05/01 11:03:16;;;;;;;5.03;2.08;;;11.20;99.90;;;;;;5166185;27;20202;-41
2021/05/01 11:05:48;;;;;;;2.05;1.95;;;11.10;99.90;;;;;;5166419;27;20197;-41
2021/05/01 11:08:34;;;;;;;1.90;1.80;;;11.10;99.90;;;;;;5165898;27;20210;-42
2021/05/01 11:11:05;;;;;;;2.20;2.10;;;11.00;99.90;;;;;;5166305;27;20230;-41
2021/05/01 11:13:35;;;;;;;2.47;2.28;;;11.00;99.90;;;;;;5165350;27;20195;-40
2021/05/01 11:16:09;;;;;;;2.47;2.30;;;11.00;99.90;;;;;;5166339;27;20199;-40
2021/05/01 11:18:41;;;;;;;2.00;1.90;;;11.00;99.90;;;;;;5166053;27;20307;-40
2021/05/01 11:21:12;;;;;;;2.20;2.05;;;11.00;99.90;;;;;;5165913;27;20202;-40
2021/05/01 11:23:42;;;;;;;2.80;2.30;;;10.90;99.90;;;;;;5166325;27;20231;-39
2021/05/01 11:26:13;;;;;;;2.80;2.60;;;10.90;99.90;;;;;;5165529;27;20191;-40
2021/05/01 11:28:44;;;;;;;3.10;2.10;;;10.90;99.90;;;;;;5165260;27;20203;-40
2021/05/01 11:31:16;;;;;;;2.20;2.10;;;10.90;99.90;;;;;;5165627;27;20234;-40
2021/05/01 11:33:48;;;;;;;1.92;1.80;;;10.80;99.90;;;;;;5166009;27;20199;-40
2021/05/01 11:36:20;;;;;;;2.38;2.00;;;10.80;99.90;;;;;;5164979;27;20202;-40
2021/05/01 11:38:52;;;;;;;1.90;1.80;;;10.80;99.90;;;;;;5166117;27;20207;-40
2021/05/01 11:41:25;;;;;;;1.92;1.77;;;10.80;99.90;;;;;;5164914;27;20207;-40
2021/05/01 11:43:55;;;;;;;2.35;2.15;;;10.90;99.90;;;;;;5165330;27;20650;-40
2021/05/01 11:46:32;;;;;;;2.42;1.58;;;10.80;99.90;;;;;;5165171;27;20227;-39
2021/05/01 11:49:07;;;;;;;2.58;1.33;;;10.80;99.90;;;;;;5165913;27;20217;-43
2021/05/01 11:51:50;;;;;;;1.40;1.30;;;10.80;99.90;;;;;;5164267;27;20221;-40
2021/05/01 11:54:38;;;;;;;1.50;1.40;;;10.80;99.90;;;;;;5178105;27;20186;-41
2021/05/01 11:57:14;;;;;;;1.60;1.50;;;10.90;99.90;;;;;;5156837;27;20198;-41
2021/05/01 11:59:46;;;;;;;1.40;1.30;;;10.90;99.90;;;;;;5166132;27;20211;-40
2021/05/01 12:02:16;;;;;;;1.55;1.10;;;10.80;99.90;;;;;;5164738;27;20259;-41
2021/05/01 12:04:59;;;;;;;1.60;1.42;;;10.80;99.90;;;;;;5164798;27;20206;-40
2021/05/01 12:07:38;;;;;;;2.50;1.20;;;10.70;99.90;;;;;;5164611;27;20259;-41
2021/05/01 12:10:10;;;;;;;1.33;1.10;;;10.80;99.90;;;;;;5165203;27;20222;-39
2021/05/01 12:12:45;;;;;;;1.60;1.50;;;10.80;99.90;;;;;;5163575;27;20195;-40
2021/05/01 12:15:16;;;;;;;3.20;1.70;;;10.80;99.90;;;;;;5164907;27;20262;-40
2021/05/01 12:17:53;;;;;;;1.92;1.35;;;10.80;99.90;;;;;;5164467;27;20258;-40
2021/05/01 12:20:28;;;;;;;1.30;1.20;;;10.80;99.90;;;;;;5164996;27;20206;-39
2021/05/01 12:23:05;;;;;;;1.45;1.35;;;10.90;99.90;;;;;;5164263;27;20202;-40
2021/05/01 12:25:41;;;;;;;1.40;1.30;;;10.80;99.90;;;;;;5164787;27;20278;-40
2021/05/01 12:28:11;;;;;;;1.95;1.55;;;10.90;99.90;;;;;;5163330;27;20345;-41
2021/05/01 12:30:51;;;;;;;2.20;1.50;;;10.80;99.90;;;;;;5164870;27;20252;-41
2021/05/01 12:33:46;;;;;;;1.60;1.45;;;10.80;99.90;;;;;;5164693;27;20268;-40
2021/05/01 12:36:26;;;;;;;1.10;1.10;;;10.70;99.90;;;;;;5164834;27;20216;-41
2021/05/01 12:38:58;;;;;;;1.65;1.55;;;10.70;99.90;;;;;;5163120;27;20206;-41
2021/05/01 12:41:40;;;;;;;2.00;1.50;;;10.70;99.90;;;;;;5148003;27;20206;-40
2021/05/01 12:44:31;;;;;;;2.05;1.60;;;10.70;99.90;;;;;;5164113;27;20254;-41
2021/05/01 12:47:04;;;;;;;2.78;1.90;;;10.70;99.90;;;;;;5164148;27;20230;-41
2021/05/01 12:49:35;;;;;;;2.00;1.90;;;10.60;99.90;;;;;;5164873;27;20606;-41
2021/05/01 12:52:20;;;;;;;3.17;1.70;;;10.60;99.90;;;;;;5163879;27;20226;-40
2021/05/01 12:54:58;;;;;;;2.80;2.35;;;10.60;99.90;;;;;;5165369;27;20219;-40
2021/05/01 12:57:35;;;;;;;2.10;2.00;;;10.60;99.90;;;;;;5162941;27;20190;-40
2021/05/01 13:00:25;;;;;;;2.58;2.38;;;10.70;99.90;;;;;;5164601;27;20198;-39
2021/05/01 13:03:16;;;;;;;3.15;2.42;;;10.60;99.90;;;;;;5164111;27;20203;-40
2021/05/01 13:05:50;;;;;;;2.78;2.20;;;10.50;99.90;;;;;;5164048;27;20713;-40
2021/05/01 13:08:27;;;;;;;3.97;2.22;;;10.50;99.90;;;;;;5160969;27;20213;-39
2021/05/01 13:10:58;;;;;;;6.40;2.78;;;10.70;99.90;;;;;;5164459;27;20373;-42
2021/05/01 13:13:35;;;;;;;6.78;2.35;;;10.60;99.90;;;;;;5162706;27;20274;-40
2021/05/01 13:16:09;;;;;;;3.38;2.45;;;10.60;99.90;;;;;;5154368;27;20258;-39
2021/05/01 13:19:08;;;;;;;2.55;2.25;;;10.60;99.90;;;;;;5164390;27;20208;-40